createdAt,value
2023-03-12T00:01:17.565Z,-0.30
2023-03-12T00:03:45.080Z,-0.40
2023-03-12T00:06:12.490Z,-0.30
2023-03-12T00:08:40.413Z,-0.40
2023-03-12T00:11:16.193Z,-0.40
2023-03-12T00:13:43.551Z,-0.40
2023-03-12T00:16:13.951Z,-0.40
2023-03-12T00:18:41.970Z,-0.40
2023-03-12T00:21:09.189Z,-0.50
2023-03-12T00:23:36.982Z,-0.50
2023-03-12T00:26:12.962Z,-0.50
2023-03-12T00:28:40.680Z,-0.60
2023-03-12T00:31:33.837Z,-0.50
2023-03-12T00:34:02.965Z,-0.40
2023-03-12T00:36:32.048Z,-0.40
2023-03-12T00:39:00.746Z,-0.40
2023-03-12T00:41:28.859Z,-0.50
2023-03-12T00:43:56.273Z,-0.50
2023-03-12T00:46:23.553Z,-0.50
2023-03-12T00:48:50.901Z,-0.50
2023-03-12T00:51:18.252Z,-0.40
2023-03-12T00:53:45.539Z,-0.50
2023-03-12T00:56:12.507Z,-0.50
2023-03-12T00:58:39.790Z,-0.50
2023-03-12T01:01:06.761Z,-0.40
2023-03-12T01:03:33.992Z,-0.40
2023-03-12T01:06:00.929Z,-0.40
2023-03-12T01:08:28.207Z,-0.40
2023-03-12T01:10:55.189Z,-0.50
2023-03-12T01:13:22.539Z,-0.50
2023-03-12T01:15:49.456Z,-0.40
2023-03-12T01:18:16.772Z,-0.30
2023-03-12T01:20:43.736Z,-0.30
2023-03-12T01:23:11.346Z,-0.40
2023-03-12T01:25:38.477Z,-0.40
2023-03-12T01:28:05.936Z,-0.30
2023-03-12T01:30:33.048Z,-0.30
2023-03-12T01:33:00.276Z,-0.30
2023-03-12T01:35:27.373Z,-0.30
2023-03-12T01:37:56.052Z,-0.30
2023-03-12T01:40:29.070Z,-0.30
2023-03-12T01:42:58.228Z,-0.30
2023-03-12T01:45:59.237Z,-0.30
2023-03-12T01:48:30.495Z,-0.20
2023-03-12T01:50:58.409Z,-0.20
2023-03-12T01:53:25.770Z,-0.20
2023-03-12T01:55:52.812Z,-0.20
2023-03-12T01:58:20.157Z,-0.10
2023-03-12T02:00:47.151Z,-0.10
2023-03-12T02:03:15.736Z,-0.10
2023-03-12T02:05:53.291Z,0.00
2023-03-12T02:08:21.894Z,0.00
2023-03-12T02:10:49.973Z,0.00
2023-03-12T02:13:17.461Z,0.00
2023-03-12T02:15:44.462Z,0.10
2023-03-12T02:18:16.710Z,0.10
2023-03-12T02:20:49.855Z,0.20
2023-03-12T02:23:34.041Z,0.10
2023-03-12T02:26:02.812Z,0.10
2023-03-12T02:28:30.374Z,0.10
2023-03-12T02:31:02.198Z,0.10
2023-03-12T02:33:29.660Z,0.10
2023-03-12T02:35:56.811Z,0.10
2023-03-12T02:38:36.396Z,0.10
2023-03-12T02:41:31.645Z,0.20
2023-03-12T02:44:12.928Z,0.20
2023-03-12T02:46:43.770Z,0.20
2023-03-12T02:49:13.322Z,0.20
2023-03-12T02:51:41.827Z,0.20
2023-03-12T02:54:09.188Z,0.20
2023-03-12T02:56:36.621Z,0.10
2023-03-12T02:59:05.007Z,0.10
2023-03-12T03:01:33.976Z,0.10
2023-03-12T03:04:05.995Z,0.20
2023-03-12T03:06:33.877Z,0.10
2023-03-12T03:09:02.247Z,0.20
2023-03-12T03:11:29.542Z,0.20
2023-03-12T03:13:56.987Z,0.20
2023-03-12T03:16:24.463Z,0.20
2023-03-12T03:18:52.016Z,0.40
2023-03-12T03:21:19.116Z,0.30
2023-03-12T03:23:48.621Z,0.30
2023-03-12T03:26:17.134Z,0.30
2023-03-12T03:31:10.275Z,0.40
2023-03-12T03:33:39.442Z,0.50
2023-03-12T03:36:08.596Z,0.50
2023-03-12T03:38:36.361Z,0.50
2023-03-12T03:41:03.998Z,0.60
2023-03-12T03:43:31.492Z,0.60
2023-03-12T03:46:00.704Z,0.60
2023-03-12T03:48:28.015Z,0.60
2023-03-12T03:50:55.033Z,0.70
2023-03-12T03:53:22.309Z,0.70
2023-03-12T03:55:49.290Z,0.70
2023-03-12T03:58:16.588Z,0.60
2023-03-12T04:00:45.526Z,0.70
2023-03-12T04:03:13.981Z,0.60
2023-03-12T04:05:45.393Z,0.60
2023-03-12T04:08:13.829Z,0.70
2023-03-12T04:10:41.260Z,0.60
2023-03-12T04:13:08.525Z,0.70
2023-03-12T04:15:35.569Z,0.70
2023-03-12T04:18:02.958Z,0.70
2023-03-12T04:20:30.081Z,0.70
2023-03-12T04:22:58.485Z,0.80
2023-03-12T04:25:25.554Z,0.70
2023-03-12T04:27:52.796Z,0.70
2023-03-12T04:30:19.770Z,0.80
2023-03-12T04:32:46.984Z,0.80
2023-03-12T04:35:14.065Z,0.90
2023-03-12T04:37:41.328Z,0.80
2023-03-12T04:40:09.886Z,0.80
2023-03-12T04:42:38.000Z,0.70
2023-03-12T04:45:06.480Z,0.80
2023-03-12T04:47:34.583Z,0.80
2023-03-12T04:50:01.515Z,0.80
2023-03-12T04:52:28.922Z,0.70
2023-03-12T04:54:56.286Z,0.80
2023-03-12T04:57:23.630Z,0.70
2023-03-12T04:59:50.601Z,0.70
2023-03-12T05:02:17.897Z,0.70
2023-03-12T05:04:45.037Z,0.80
2023-03-12T05:07:12.264Z,0.90
2023-03-12T05:09:39.253Z,0.90
2023-03-12T05:12:06.865Z,0.80
2023-03-12T05:14:33.896Z,0.80
2023-03-12T05:17:01.154Z,0.80
2023-03-12T05:19:28.144Z,0.80
2023-03-12T05:21:55.362Z,0.80
2023-03-12T05:24:22.788Z,0.70
2023-03-12T05:26:49.990Z,0.80
2023-03-12T05:29:16.958Z,0.80
2023-03-12T05:31:44.292Z,0.80
2023-03-12T05:34:13.273Z,0.80
2023-03-12T05:36:40.731Z,0.90
2023-03-12T05:39:07.841Z,0.90
2023-03-12T05:41:35.181Z,0.90
2023-03-12T05:44:02.208Z,0.90
2023-03-12T05:46:29.552Z,0.90
2023-03-12T05:48:56.554Z,0.90
2023-03-12T05:51:23.800Z,0.80
2023-03-12T05:53:50.883Z,0.90
2023-03-12T05:56:18.653Z,0.90
2023-03-12T05:58:47.701Z,0.90
2023-03-12T06:01:23.924Z,1.00
2023-03-12T06:03:51.162Z,1.00
2023-03-12T06:06:18.813Z,1.10
2023-03-12T06:08:46.262Z,1.10
2023-03-12T06:11:13.741Z,1.00
2023-03-12T06:13:40.805Z,1.10
2023-03-12T06:16:17.657Z,1.10
2023-03-12T06:18:44.639Z,1.10
2023-03-12T06:21:20.404Z,1.20
2023-03-12T06:23:47.737Z,1.20
2023-03-12T06:26:16.716Z,1.20
2023-03-12T06:28:44.917Z,1.20
2023-03-12T06:31:12.781Z,1.20
2023-03-12T06:33:39.840Z,1.20
2023-03-12T06:36:10.199Z,1.40
2023-03-12T06:38:38.110Z,1.50
2023-03-12T06:41:15.583Z,1.60
2023-03-12T06:43:43.402Z,1.60
2023-03-12T06:46:14.022Z,1.60
2023-03-12T06:48:41.700Z,1.80
2023-03-12T06:51:10.818Z,1.90
2023-03-12T06:53:41.858Z,1.90
2023-03-12T06:56:10.738Z,1.70
2023-03-12T06:58:38.393Z,1.70
2023-03-12T07:01:05.909Z,1.70
2023-03-12T07:03:33.269Z,1.80
2023-03-12T07:06:00.836Z,1.70
2023-03-12T07:08:31.747Z,1.70
2023-03-12T07:11:03.590Z,1.50
2023-03-12T07:13:31.137Z,1.70
2023-03-12T07:15:58.410Z,1.80
2023-03-12T07:18:25.913Z,1.90
2023-03-12T07:20:54.326Z,1.80
2023-03-12T07:23:21.471Z,1.80
2023-03-12T07:25:49.169Z,1.80
2023-03-12T07:28:17.096Z,1.80
2023-03-12T07:30:50.381Z,1.90
2023-03-12T07:33:20.095Z,1.90
2023-03-12T07:35:51.468Z,2.00
2023-03-12T07:38:19.333Z,2.10
2023-03-12T07:40:55.204Z,2.70
2023-03-12T07:43:22.733Z,3.20
2023-03-12T07:45:51.162Z,3.90
2023-03-12T07:48:19.950Z,3.90
2023-03-12T07:50:47.857Z,3.80
2023-03-12T07:53:14.839Z,3.60
2023-03-12T07:55:46.131Z,3.80
2023-03-12T07:58:14.348Z,4.30
2023-03-12T08:00:41.957Z,4.20
2023-03-12T08:03:09.319Z,4.20
2023-03-12T08:05:37.133Z,4.10
2023-03-12T08:08:04.487Z,4.20
2023-03-12T08:10:31.875Z,4.40
2023-03-12T08:12:58.902Z,4.40
2023-03-12T08:15:26.175Z,4.40
2023-03-12T08:17:53.298Z,4.50
2023-03-12T08:20:20.585Z,4.50
2023-03-12T08:22:47.528Z,4.40
2023-03-12T08:25:14.771Z,4.80
2023-03-12T08:27:41.728Z,5.00
2023-03-12T08:30:09.911Z,5.00
2023-03-12T08:32:37.047Z,4.60
2023-03-12T08:35:05.731Z,4.30
2023-03-12T08:37:33.017Z,4.30
2023-03-12T08:40:00.484Z,4.70
2023-03-12T08:42:27.855Z,4.30
2023-03-12T08:44:55.061Z,3.50
2023-03-12T08:47:22.075Z,3.10
2023-03-12T08:49:49.309Z,3.50
2023-03-12T08:52:16.346Z,4.20
2023-03-12T08:54:44.070Z,4.80
2023-03-12T08:57:11.057Z,4.40
2023-03-12T08:59:38.513Z,4.10
2023-03-12T09:02:05.691Z,4.10
2023-03-12T09:04:33.155Z,4.60
2023-03-12T09:07:01.459Z,4.70
2023-03-12T09:09:28.681Z,4.30
2023-03-12T09:11:55.858Z,4.30
2023-03-12T09:17:10.642Z,3.90
2023-03-12T09:19:37.898Z,4.00
2023-03-12T09:22:05.032Z,4.10
2023-03-12T09:24:32.327Z,4.40
2023-03-12T09:26:59.424Z,4.40
2023-03-12T09:29:26.730Z,4.20
2023-03-12T09:31:53.912Z,3.90
2023-03-12T09:34:21.438Z,3.80
2023-03-12T09:36:48.586Z,3.70
2023-03-12T09:39:16.096Z,4.00
2023-03-12T09:41:47.670Z,4.60
2023-03-12T09:44:39.548Z,4.60
2023-03-12T09:47:25.978Z,4.00
2023-03-12T09:50:18.713Z,4.20
2023-03-12T09:52:53.541Z,4.90
2023-03-12T09:55:22.851Z,4.50
2023-03-12T09:57:51.778Z,4.50
2023-03-12T10:00:27.090Z,4.50
2023-03-12T10:03:12.852Z,4.30
2023-03-12T10:05:47.445Z,4.10
2023-03-12T10:08:34.648Z,4.10
2023-03-12T10:11:36.517Z,4.10
2023-03-12T10:14:32.732Z,3.80
2023-03-12T10:17:26.849Z,3.70
2023-03-12T10:20:22.499Z,3.90
2023-03-12T10:22:56.040Z,3.60
2023-03-12T10:25:43.147Z,3.50
2023-03-12T10:28:25.849Z,3.70
2023-03-12T10:30:59.446Z,3.80
2023-03-12T10:33:44.744Z,3.70
2023-03-12T10:36:17.676Z,3.60
2023-03-12T10:38:45.200Z,3.40
2023-03-12T10:41:18.389Z,3.30
2023-03-12T10:43:45.743Z,3.30
2023-03-12T10:46:39.763Z,3.50
2023-03-12T10:49:22.370Z,3.90
2023-03-12T10:52:07.690Z,4.20
2023-03-12T10:54:40.897Z,4.30
2023-03-12T10:57:08.741Z,4.10
2023-03-12T10:59:38.762Z,4.20
2023-03-12T11:02:30.581Z,4.20
2023-03-12T11:04:58.901Z,4.00
2023-03-12T11:07:30.092Z,4.10
2023-03-12T11:10:06.563Z,4.40
2023-03-12T11:12:36.225Z,4.80
2023-03-12T11:15:20.953Z,5.30
2023-03-12T11:17:48.687Z,5.40
2023-03-12T11:20:34.059Z,5.50
2023-03-12T11:23:17.813Z,4.70
2023-03-12T11:25:55.662Z,4.20
2023-03-12T11:28:32.437Z,4.00
2023-03-12T11:31:01.063Z,3.80
2023-03-12T11:33:28.701Z,3.60
2023-03-12T11:36:22.961Z,3.50
2023-03-12T11:39:02.359Z,3.70
2023-03-12T11:42:02.030Z,3.70
2023-03-12T11:44:51.084Z,3.80
2023-03-12T11:47:32.245Z,4.30
2023-03-12T11:50:30.495Z,5.30
2023-03-12T11:53:05.697Z,5.70
2023-03-12T11:55:43.547Z,5.60
2023-03-12T11:58:19.856Z,5.10
2023-03-12T12:00:55.176Z,4.70
2023-03-12T12:03:44.555Z,5.10
2023-03-12T12:06:31.829Z,5.30
2023-03-12T12:09:13.145Z,5.00
2023-03-12T12:11:49.242Z,5.20
2023-03-12T12:14:39.579Z,5.30
2023-03-12T12:17:15.083Z,5.10
2023-03-12T12:19:58.114Z,5.10
2023-03-12T12:22:49.618Z,5.60
2023-03-12T12:25:30.464Z,5.50
2023-03-12T12:28:28.444Z,5.00
2023-03-12T12:31:07.471Z,5.10
2023-03-12T12:34:03.067Z,5.30
2023-03-12T12:36:34.293Z,5.50
2023-03-12T12:39:20.574Z,5.50
2023-03-12T12:41:53.832Z,5.80
2023-03-12T12:44:25.361Z,5.80
2023-03-12T12:46:59.014Z,5.60
2023-03-12T12:49:46.993Z,5.70
2023-03-12T12:52:20.701Z,5.90
2023-03-12T12:54:59.066Z,5.80
2023-03-12T12:57:38.347Z,5.70
2023-03-12T13:00:23.831Z,5.80
2023-03-12T13:02:52.134Z,5.70
2023-03-12T13:05:25.970Z,5.70
2023-03-12T13:07:53.650Z,5.50
2023-03-12T13:10:35.653Z,5.40
2023-03-12T13:13:23.986Z,5.20
2023-03-12T13:16:12.064Z,5.50
2023-03-12T13:18:39.916Z,5.50
2023-03-12T13:21:19.114Z,5.40
2023-03-12T13:24:23.357Z,5.50
2023-03-12T13:27:00.677Z,5.50
2023-03-12T13:29:31.346Z,5.50
2023-03-12T13:31:58.542Z,5.30
2023-03-12T13:34:32.318Z,5.20
2023-03-12T13:37:02.460Z,5.50
2023-03-12T13:39:36.153Z,5.40
2023-03-12T13:42:24.384Z,5.60
2023-03-12T13:44:53.508Z,5.70
2023-03-12T13:47:27.585Z,5.60
2023-03-12T13:50:08.486Z,5.30
2023-03-12T13:52:42.714Z,5.50
2023-03-12T13:55:29.860Z,5.50
2023-03-12T13:58:23.255Z,5.20
2023-03-12T14:01:01.264Z,5.10
2023-03-12T14:03:33.852Z,5.10
2023-03-12T14:06:14.551Z,5.20
2023-03-12T14:08:50.265Z,5.30
2023-03-12T14:11:29.532Z,5.30
2023-03-12T14:14:24.669Z,5.40
2023-03-12T14:16:58.312Z,5.20
2023-03-12T14:19:31.125Z,4.90
2023-03-12T14:22:04.647Z,4.80
2023-03-12T14:24:48.814Z,4.60
2023-03-12T14:27:22.184Z,4.50
2023-03-12T14:29:52.720Z,4.60
2023-03-12T14:32:29.585Z,4.70
2023-03-12T14:35:38.816Z,4.70
2023-03-12T14:38:15.039Z,4.50
2023-03-12T14:40:53.171Z,4.50
2023-03-12T14:43:25.462Z,4.50
2023-03-12T14:45:55.974Z,4.50
2023-03-12T14:48:27.586Z,4.40
2023-03-12T14:50:56.257Z,4.30
2023-03-12T14:53:27.746Z,4.20
2023-03-12T14:56:24.141Z,4.20
2023-03-12T14:58:52.442Z,4.20
2023-03-12T15:01:23.467Z,4.20
2023-03-12T15:03:58.533Z,4.20
2023-03-12T15:06:38.426Z,4.20
2023-03-12T15:09:07.493Z,4.00
2023-03-12T15:11:37.162Z,4.00
2023-03-12T15:14:11.956Z,4.00
2023-03-12T15:16:39.302Z,4.00
2023-03-12T15:19:06.905Z,3.90
2023-03-12T15:21:35.622Z,3.90
2023-03-12T15:24:03.720Z,4.00
2023-03-12T15:26:33.257Z,4.00
2023-03-12T15:29:15.564Z,4.00
2023-03-12T15:31:44.444Z,4.10
2023-03-12T15:34:14.805Z,4.10
2023-03-12T15:36:48.721Z,4.10
2023-03-12T15:39:31.705Z,4.10
2023-03-12T15:42:15.103Z,4.10
2023-03-12T15:44:58.680Z,4.20
2023-03-12T15:47:29.059Z,4.20
2023-03-12T15:50:32.802Z,4.10
2023-03-12T15:53:06.015Z,4.20
2023-03-12T15:55:35.334Z,4.20
2023-03-12T15:58:03.892Z,4.20
2023-03-12T16:00:41.208Z,4.20
2023-03-12T16:03:16.789Z,4.30
2023-03-12T16:05:44.655Z,4.20
2023-03-12T16:08:22.648Z,4.20
2023-03-12T16:10:50.719Z,4.20
2023-03-12T16:13:23.456Z,4.30
2023-03-12T16:15:50.781Z,4.20
2023-03-12T16:18:22.803Z,4.10
2023-03-12T16:20:52.568Z,4.00
2023-03-12T16:23:20.149Z,4.00
2023-03-12T16:25:50.269Z,4.00
2023-03-12T16:28:19.372Z,4.00
2023-03-12T16:30:46.864Z,3.90
2023-03-12T16:33:16.727Z,3.90
2023-03-12T16:35:44.481Z,3.90
2023-03-12T16:38:11.472Z,3.90
2023-03-12T16:40:43.067Z,3.80
2023-03-12T16:43:22.377Z,3.80
2023-03-12T16:45:51.367Z,3.70
2023-03-12T16:48:21.200Z,3.60
2023-03-12T16:50:54.243Z,3.60
2023-03-12T16:53:22.432Z,3.50
2023-03-12T16:55:58.547Z,3.40
2023-03-12T16:58:26.989Z,3.30
2023-03-12T17:00:55.723Z,3.30
2023-03-12T17:03:35.768Z,3.30
2023-03-12T17:06:05.133Z,3.30
2023-03-12T17:08:32.243Z,3.20
2023-03-12T17:11:00.289Z,3.20
2023-03-12T17:13:29.054Z,3.30
2023-03-12T17:15:56.871Z,3.20
2023-03-12T17:18:24.053Z,3.20
2023-03-12T17:20:52.044Z,3.20
2023-03-12T17:23:19.578Z,3.10
2023-03-12T17:25:46.932Z,3.10
2023-03-12T17:28:15.900Z,3.10
2023-03-12T17:30:43.842Z,3.10
2023-03-12T17:33:16.159Z,3.20
2023-03-12T17:35:44.286Z,3.10
2023-03-12T17:38:12.283Z,3.10
2023-03-12T17:40:41.485Z,3.10
2023-03-12T17:43:08.483Z,3.10
2023-03-12T17:45:37.029Z,3.10
2023-03-12T17:48:04.643Z,3.20
2023-03-12T17:50:32.015Z,3.20
2023-03-12T17:52:59.165Z,3.20
2023-03-12T17:55:26.418Z,3.20
2023-03-12T17:57:53.532Z,3.20
2023-03-12T18:00:22.980Z,3.20
2023-03-12T18:02:50.676Z,3.10
2023-03-12T18:05:18.353Z,3.10
2023-03-12T18:07:48.020Z,3.10
2023-03-12T18:10:15.586Z,3.10
2023-03-12T18:12:42.984Z,3.10
2023-03-12T18:15:13.221Z,3.10
2023-03-12T18:17:41.500Z,3.10
2023-03-12T18:20:12.614Z,3.10
2023-03-12T18:22:40.236Z,3.00
2023-03-12T18:25:08.643Z,2.90
2023-03-12T18:27:36.025Z,2.70
2023-03-12T18:30:03.654Z,2.70
2023-03-12T18:32:30.702Z,2.60
2023-03-12T18:34:58.103Z,2.60
2023-03-12T18:37:25.200Z,2.60
2023-03-12T18:39:52.463Z,2.60
2023-03-12T18:42:19.684Z,2.60
2023-03-12T18:44:47.160Z,2.60
2023-03-12T18:47:14.181Z,2.50
2023-03-12T18:49:41.897Z,2.50
2023-03-12T18:52:08.931Z,2.60
2023-03-12T18:54:36.280Z,2.50
2023-03-12T18:57:03.402Z,2.50
2023-03-12T18:59:32.352Z,2.60
2023-03-12T19:01:59.762Z,2.60
2023-03-12T19:04:27.521Z,2.60
2023-03-12T19:06:54.725Z,2.50
2023-03-12T19:09:22.566Z,2.50
2023-03-12T19:11:49.912Z,2.50
2023-03-12T19:14:18.025Z,2.50
2023-03-12T19:16:44.978Z,2.50
2023-03-12T19:19:12.212Z,2.50
2023-03-12T19:21:39.274Z,2.40
2023-03-12T19:24:06.570Z,2.50
2023-03-12T19:26:33.625Z,2.50
2023-03-12T19:29:00.890Z,2.50
2023-03-12T19:31:27.953Z,2.50
2023-03-12T19:33:55.248Z,2.50
2023-03-12T19:36:22.286Z,2.60
2023-03-12T19:38:49.753Z,2.70
2023-03-12T19:41:17.482Z,2.60
2023-03-12T19:43:44.798Z,2.50
2023-03-12T19:46:12.083Z,2.50
2023-03-12T19:48:39.428Z,2.40
2023-03-12T19:51:08.206Z,2.40
2023-03-12T19:53:35.761Z,2.40
2023-03-12T19:56:03.362Z,2.40
2023-03-12T19:58:30.722Z,2.50
2023-03-12T20:01:02.292Z,2.50
2023-03-12T20:03:32.995Z,2.50
2023-03-12T20:06:00.036Z,2.50
2023-03-12T20:08:33.378Z,2.50
2023-03-12T20:11:09.722Z,2.30
2023-03-12T20:13:40.290Z,2.30
2023-03-12T20:16:08.409Z,2.30
2023-03-12T20:18:35.645Z,2.20
2023-03-12T20:21:02.652Z,2.20
2023-03-12T20:23:31.306Z,2.10
2023-03-12T20:25:58.410Z,2.10
2023-03-12T20:28:25.827Z,2.00
2023-03-12T20:30:53.070Z,2.00
2023-03-12T20:33:20.522Z,1.90
2023-03-12T20:35:50.224Z,1.90
2023-03-12T20:38:17.787Z,1.80
2023-03-12T20:40:46.007Z,1.80
2023-03-12T20:43:13.314Z,1.80
2023-03-12T20:45:40.308Z,1.70
2023-03-12T20:48:07.669Z,1.70
2023-03-12T20:50:38.934Z,1.70
2023-03-12T20:53:07.157Z,1.70
2023-03-12T20:55:34.244Z,1.70
2023-03-12T20:58:01.492Z,1.60
2023-03-12T21:00:28.473Z,1.60
2023-03-12T21:02:56.109Z,1.60
2023-03-12T21:05:24.972Z,1.50
2023-03-12T21:07:52.980Z,1.50
2023-03-12T21:10:21.260Z,1.50
2023-03-12T21:12:48.499Z,1.50
2023-03-12T21:15:15.563Z,1.40
2023-03-12T21:17:42.791Z,1.40
2023-03-12T21:20:13.496Z,1.30
2023-03-12T21:22:43.447Z,1.20
2023-03-12T21:25:11.709Z,1.10
2023-03-12T21:27:49.832Z,1.00
2023-03-12T21:30:18.011Z,0.90
2023-03-12T21:32:45.337Z,0.70
2023-03-12T21:35:12.517Z,0.70
2023-03-12T21:37:40.054Z,0.60
2023-03-12T21:40:09.014Z,0.50
2023-03-12T21:42:36.341Z,0.50
2023-03-12T21:45:03.650Z,0.40
2023-03-12T21:47:31.139Z,0.40
2023-03-12T21:49:58.123Z,0.50
2023-03-12T21:52:25.368Z,0.50
2023-03-12T21:54:52.289Z,0.50
2023-03-12T21:57:19.519Z,0.50
2023-03-12T21:59:46.523Z,0.50
2023-03-12T22:02:15.057Z,0.50
2023-03-12T22:04:42.122Z,0.50
2023-03-12T22:07:09.580Z,0.50
2023-03-12T22:09:36.568Z,0.50
2023-03-12T22:12:04.174Z,0.50
2023-03-12T22:14:31.129Z,0.60
2023-03-12T22:16:58.892Z,0.60
2023-03-12T22:19:25.944Z,0.60
2023-03-12T22:21:53.248Z,0.70
2023-03-12T22:24:20.251Z,0.70
2023-03-12T22:26:47.523Z,0.80
2023-03-12T22:29:14.526Z,0.80
2023-03-12T22:31:41.927Z,0.80
2023-03-12T22:34:09.013Z,0.80
2023-03-12T22:36:38.741Z,0.80
2023-03-12T22:39:05.901Z,0.90
2023-03-12T22:41:33.437Z,1.00
2023-03-12T22:44:07.169Z,1.00
2023-03-12T22:46:34.625Z,1.00
2023-03-12T22:49:03.281Z,1.00
2023-03-12T22:51:32.306Z,1.00
2023-03-12T22:53:59.422Z,1.00
2023-03-12T22:56:27.458Z,0.90
2023-03-12T22:58:55.534Z,0.90
2023-03-12T23:01:24.248Z,0.90
2023-03-12T23:03:51.854Z,0.90
2023-03-12T23:06:25.048Z,0.90
2023-03-12T23:08:54.811Z,0.90
2023-03-12T23:11:25.284Z,0.90
2023-03-12T23:13:53.600Z,0.90
2023-03-12T23:16:23.178Z,0.90
2023-03-12T23:18:50.885Z,0.90
2023-03-12T23:21:23.216Z,0.90
2023-03-12T23:23:51.424Z,0.90
2023-03-12T23:26:24.678Z,0.90
2023-03-12T23:28:53.499Z,1.00
2023-03-12T23:31:21.180Z,1.00
2023-03-12T23:33:48.182Z,1.00
2023-03-12T23:36:18.806Z,1.00
2023-03-12T23:38:46.815Z,1.00
2023-03-12T23:41:22.130Z,1.00
2023-03-12T23:43:49.497Z,1.00
2023-03-12T23:46:17.830Z,1.00
2023-03-12T23:48:48.059Z,1.00
2023-03-12T23:51:19.480Z,1.00
2023-03-12T23:53:48.963Z,1.00
2023-03-12T23:56:19.164Z,1.00
2023-03-12T23:58:46.957Z,1.00
